Terminal Aerodrome Forecast
Issued by NWS

Current Version | Previous Version | Graphics & Text | Print | Product List | Glossary On
Versions: 1 2 3 4 5 6 7 8 9 10 11 12
415
FTUS41 KPBZ 201120
TAFHLG
TAF
KHLG 201120Z 2012/2112 32012KT P6SM SKC
     FM210200 33003KT P6SM SKC=

USA.gov is the U.S. government's official web portal to all federal, state and local government web resources and services.